Jackson, MN

5:10 AM CST on February 20, 2017 (GMT -0600)
Home | | Change Station

Elev 1443 ft 43.65 °N, 94.94 °W | Updated 17 seconds ago

Scattered Clouds
Scattered Clouds
48.9 °F
Feels Like 46 °F
N
6.5
Wind Variable Wind from SSW
Gusts 9.8 mph

Today
High -- | Low -- °F
--% Chance of Precip.
Yesterday
High -- | Low -- °F
Precip. -- in
Pressure 29.79 in
Visibility 10.0 miles
Clouds Scattered Clouds 12000 ft
Windchill 46 °F
Dew Point 49 °F
Humidity 99%
Rainfall 0.00 in
Snow Depth Not available.
7:10 AM 5:57 PM
Waning Crescent, 35% visible
METAR KMJQ 201055Z AUTO 17011G17KT 10SM SCT120 10/07 A2979 RMK AO2
Pressure 29.79 in
Visibility 10.0 miles
Clouds Scattered Clouds 12000 ft
Windchill 46 °F
Dew Point 49 °F
Humidity 99%
Rainfall 0.00 in
Snow Depth Not available.
7:10 AM 5:57 PM
Waning Crescent, 35% visible
METAR KMJQ 201055Z AUTO 17011G17KT 10SM SCT120 10/07 A2979 RMK AO2

Get Your Daily Forecast Email!

Thanks for signing up!

Be on the lookout for a verification email in your inbox.

You'll start receiving the daily forecast at 8 AM.

×

10-Day Weather Forecast

Almanac

Astronomy

Feb. 20, 2017 Rise Set
Actual Time
Civil Twilight
Nautical Twilight
Astronomical Twilight
Moon
Length of Visible Light
Length of Day
Tomorrow will be .
, % of the Moon is Illuminated

Today's Extremes

State Highs State Lows

Community

WunderPhotos

Upload Photos

1,962,540 photos uploaded!

WunderBlog® & News

Nearby

Air Quality

  Air Quality AQ Index Pollutant
Not available.

Snow Depth

Station Depth Elevation

Earthquake Activity

City Distance Mag. Time & Date
Minimum magnitude displayed is 2.5.

Coastal Water Temperatures

Place Temperature

Stations

Nearby Weather Stations

Station Location Temp. Windchill Dew Point Humidity Wind Precip. Elev Updated Type
                   

Watches & Warnings

There are currently no watches in effect.